sensor_id;sensor_type;location;lat;lon;timestamp;pressure;altitude;pressure_sealevel;temperature;humidity
70217;BME280;65567;55.684;37.570;2023-02-28T00:00:47;99630.31;;;-2.64;55.75
70217;BME280;65567;55.684;37.570;2023-02-28T00:03:13;99636.38;;;-2.57;55.65
70217;BME280;65567;55.684;37.570;2023-02-28T00:05:39;99624.25;;;-2.74;56.14
70217;BME280;65567;55.684;37.570;2023-02-28T00:08:05;99624.22;;;-2.77;56.33
70217;BME280;65567;55.684;37.570;2023-02-28T00:10:32;99622.44;;;-2.84;56.34
70217;BME280;65567;55.684;37.570;2023-02-28T00:13:03;99616.50;;;-2.78;56.06
70217;BME280;65567;55.684;37.570;2023-02-28T00:15:30;99619.03;;;-2.83;56.15
70217;BME280;65567;55.684;37.570;2023-02-28T00:17:56;99607.72;;;-3.01;56.58
70217;BME280;65567;55.684;37.570;2023-02-28T00:20:23;99615.50;;;-2.91;56.67
70217;BME280;65567;55.684;37.570;2023-02-28T00:22:52;99605.97;;;-3.08;56.87
70217;BME280;65567;55.684;37.570;2023-02-28T00:25:20;99603.34;;;-3.11;57.07
70217;BME280;65567;55.684;37.570;2023-02-28T00:27:47;99594.91;;;-3.01;56.79
70217;BME280;65567;55.684;37.570;2023-02-28T00:30:23;99603.66;;;-2.83;56.44
70217;BME280;65567;55.684;37.570;2023-02-28T00:32:49;99596.75;;;-2.89;56.39
70217;BME280;65567;55.684;37.570;2023-02-28T00:35:16;99600.13;;;-2.93;56.34
70217;BME280;65567;55.684;37.570;2023-02-28T00:37:43;99605.31;;;-2.87;55.99
70217;BME280;65567;55.684;37.570;2023-02-28T00:40:09;99603.41;;;-3.09;56.27
70217;BME280;65567;55.684;37.570;2023-02-28T00:42:39;99605.81;;;-3.22;56.67
70217;BME280;65567;55.684;37.570;2023-02-28T00:45:05;99595.56;;;-3.23;56.74
70217;BME280;65567;55.684;37.570;2023-02-28T00:47:31;99587.97;;;-3.14;56.73
70217;BME280;65567;55.684;37.570;2023-02-28T00:49:58;99585.56;;;-2.99;56.40
70217;BME280;65567;55.684;37.570;2023-02-28T00:52:23;99593.19;;;-3.03;56.15
70217;BME280;65567;55.684;37.570;2023-02-28T00:54:49;99584.59;;;-3.08;56.31
70217;BME280;65567;55.684;37.570;2023-02-28T00:57:15;99583.06;;;-2.91;55.52
70217;BME280;65567;55.684;37.570;2023-02-28T00:59:41;99587.13;;;-3.10;55.90
70217;BME280;65567;55.684;37.570;2023-02-28T01:02:07;99575.84;;;-3.29;56.65
70217;BME280;65567;55.684;37.570;2023-02-28T01:04:33;99581.94;;;-3.19;56.12
70217;BME280;65567;55.684;37.570;2023-02-28T01:06:59;99580.09;;;-3.29;56.30
70217;BME280;65567;55.684;37.570;2023-02-28T01:09:24;99565.47;;;-3.38;56.81
70217;BME280;65567;55.684;37.570;2023-02-28T01:11:50;99559.59;;;-3.33;56.30
70217;BME280;65567;55.684;37.570;2023-02-28T01:14:17;99565.56;;;-3.32;56.63
70217;BME280;65567;55.684;37.570;2023-02-28T01:16:43;99563.91;;;-3.28;56.45
70217;BME280;65567;55.684;37.570;2023-02-28T01:19:09;99547.63;;;-3.34;56.55
70217;BME280;65567;55.684;37.570;2023-02-28T01:21:35;99541.75;;;-3.23;56.09
70217;BME280;65567;55.684;37.570;2023-02-28T01:24:05;99535.00;;;-3.13;55.95
70217;BME280;65567;55.684;37.570;2023-02-28T01:26:31;99533.34;;;-3.10;55.73
70217;BME280;65567;55.684;37.570;2023-02-28T01:28:57;99525.69;;;-3.07;55.42
70217;BME280;65567;55.684;37.570;2023-02-28T01:31:23;99518.69;;;-3.23;55.69
70217;BME280;65567;55.684;37.570;2023-02-28T01:33:49;99521.19;;;-3.28;55.82
70217;BME280;65567;55.684;37.570;2023-02-28T01:36:22;99506.44;;;-3.54;56.62
70217;BME280;65567;55.684;37.570;2023-02-28T01:38:49;99509.03;;;-3.52;56.59
70217;BME280;65567;55.684;37.570;2023-02-28T01:41:18;99504.91;;;-3.35;56.20
70217;BME280;65567;55.684;37.570;2023-02-28T01:46:12;99498.94;;;-3.37;56.27
70217;BME280;65567;55.684;37.570;2023-02-28T01:48:44;99496.41;;;-3.30;55.94
70217;BME280;65567;55.684;37.570;2023-02-28T01:51:18;99487.88;;;-3.29;55.63
70217;BME280;65567;55.684;37.570;2023-02-28T01:53:58;99482.75;;;-3.29;55.61
70217;BME280;65567;55.684;37.570;2023-02-28T01:56:29;99467.38;;;-3.31;55.59
70217;BME280;65567;55.684;37.570;2023-02-28T01:58:56;99474.19;;;-3.35;55.84
70217;BME280;65567;55.684;37.570;2023-02-28T02:01:23;99458.81;;;-3.35;55.74
70217;BME280;65567;55.684;37.570;2023-02-28T02:03:54;99463.84;;;-3.44;56.16
70217;BME280;65567;55.684;37.570;2023-02-28T02:06:40;99457.00;;;-3.45;56.21
70217;BME280;65567;55.684;37.570;2023-02-28T02:09:07;99474.13;;;-3.41;56.06
70217;BME280;65567;55.684;37.570;2023-02-28T02:11:34;99464.75;;;-3.37;56.04
70217;BME280;65567;55.684;37.570;2023-02-28T02:14:17;99451.94;;;-3.42;56.22
70217;BME280;65567;55.684;37.570;2023-02-28T02:17:12;99445.03;;;-3.46;56.27
70217;BME280;65567;55.684;37.570;2023-02-28T02:27:57;99441.69;;;-3.42;55.57
70217;BME280;65567;55.684;37.570;2023-02-28T02:33:41;99432.13;;;-3.61;56.37
70217;BME280;65567;55.684;37.570;2023-02-28T02:41:32;99423.53;;;-3.67;56.66
70217;BME280;65567;55.684;37.570;2023-02-28T02:46:39;99416.69;;;-3.68;56.75
70217;BME280;65567;55.684;37.570;2023-02-28T02:49:09;99415.84;;;-3.67;56.76
70217;BME280;65567;55.684;37.570;2023-02-28T02:51:40;99413.31;;;-3.65;56.95
70217;BME280;65567;55.684;37.570;2023-02-28T02:54:27;99404.84;;;-3.56;56.61
70217;BME280;65567;55.684;37.570;2023-02-28T02:56:57;99405.72;;;-3.54;56.18
70217;BME280;65567;55.684;37.570;2023-02-28T02:59:25;99401.34;;;-3.65;56.37
70217;BME280;65567;55.684;37.570;2023-02-28T03:01:57;99388.53;;;-3.65;56.28
70217;BME280;65567;55.684;37.570;2023-02-28T03:04:27;99381.69;;;-3.69;56.24
70217;BME280;65567;55.684;37.570;2023-02-28T03:06:56;99381.59;;;-3.78;56.74
70217;BME280;65567;55.684;37.570;2023-02-28T03:09:23;99373.19;;;-3.68;56.50
70217;BME280;65567;55.684;37.570;2023-02-28T03:11:52;99368.94;;;-3.64;56.33
70217;BME280;65567;55.684;37.570;2023-02-28T03:14:38;99361.28;;;-3.59;56.18
70217;BME280;65567;55.684;37.570;2023-02-28T03:20:04;99358.72;;;-3.61;56.24
70217;BME280;65567;55.684;37.570;2023-02-28T03:25:47;99334.78;;;-3.65;56.29
70217;BME280;65567;55.684;37.570;2023-02-28T03:28:32;99333.81;;;-3.82;57.01
70217;BME280;65567;55.684;37.570;2023-02-28T03:34:10;99326.94;;;-3.86;57.17
70217;BME280;65567;55.684;37.570;2023-02-28T03:36:45;99310.78;;;-3.79;56.89
70217;BME280;65567;55.684;37.570;2023-02-28T03:39:31;99310.84;;;-3.70;56.47
70217;BME280;65567;55.684;37.570;2023-02-28T03:42:09;99311.63;;;-3.78;56.48
70217;BME280;65567;55.684;37.570;2023-02-28T03:44:44;99308.06;;;-3.97;56.58
70217;BME280;65567;55.684;37.570;2023-02-28T03:47:25;99303.84;;;-3.94;56.63
70217;BME280;65567;55.684;37.570;2023-02-28T03:49:57;99306.28;;;-4.08;56.54
70217;BME280;65567;55.684;37.570;2023-02-28T03:52:31;99292.72;;;-3.97;56.59
70217;BME280;65567;55.684;37.570;2023-02-28T03:55:03;99297.00;;;-3.93;56.21
70217;BME280;65567;55.684;37.570;2023-02-28T04:00:43;99275.56;;;-4.08;56.26
70217;BME280;65567;55.684;37.570;2023-02-28T04:03:11;99267.09;;;-4.02;56.05
70217;BME280;65567;55.684;37.570;2023-02-28T04:05:52;99263.75;;;-3.96;55.92
70217;BME280;65567;55.684;37.570;2023-02-28T04:08:18;99261.22;;;-3.90;55.69
70217;BME280;65567;55.684;37.570;2023-02-28T04:10:46;99246.63;;;-4.01;55.70
70217;BME280;65567;55.684;37.570;2023-02-28T04:13:13;99243.22;;;-4.03;55.63
70217;BME280;65567;55.684;37.570;2023-02-28T04:15:39;99249.16;;;-4.02;55.79
70217;BME280;65567;55.684;37.570;2023-02-28T04:18:05;99245.06;;;-3.86;55.28
70217;BME280;65567;55.684;37.570;2023-02-28T04:20:31;99238.16;;;-3.93;55.35
70217;BME280;65567;55.684;37.570;2023-02-28T04:22:57;99233.09;;;-3.86;54.85
70217;BME280;65567;55.684;37.570;2023-02-28T04:25:23;99243.41;;;-3.73;54.81
70217;BME280;65567;55.684;37.570;2023-02-28T04:27:49;99251.09;;;-3.76;54.65
70217;BME280;65567;55.684;37.570;2023-02-28T04:30:16;99243.34;;;-3.84;54.88
70217;BME280;65567;55.684;37.570;2023-02-28T04:32:42;99246.84;;;-3.71;54.50
70217;BME280;65567;55.684;37.570;2023-02-28T04:35:08;99237.53;;;-3.63;54.21
70217;BME280;65567;55.684;37.570;2023-02-28T04:37:34;99234.00;;;-3.76;54.44
70217;BME280;65567;55.684;37.570;2023-02-28T04:40:03;99229.88;;;-3.61;54.00
70217;BME280;65567;55.684;37.570;2023-02-28T04:42:29;99229.09;;;-3.43;53.62
70217;BME280;65567;55.684;37.570;2023-02-28T04:45:02;99228.38;;;-3.22;53.35
70217;BME280;65567;55.684;37.570;2023-02-28T04:47:30;99209.69;;;-2.89;52.65
70217;BME280;65567;55.684;37.570;2023-02-28T04:49:56;99214.91;;;-2.56;52.05
70217;BME280;65567;55.684;37.570;2023-02-28T04:52:22;99206.41;;;-2.38;51.46
70217;BME280;65567;55.684;37.570;2023-02-28T04:54:48;99203.84;;;-2.32;50.97
70217;BME280;65567;55.684;37.570;2023-02-28T04:57:14;99185.91;;;-2.18;50.63
70217;BME280;65567;55.684;37.570;2023-02-28T04:59:40;99189.31;;;-1.87;50.33
70217;BME280;65567;55.684;37.570;2023-02-28T05:02:06;99189.28;;;-1.57;49.43
70217;BME280;65567;55.684;37.570;2023-02-28T05:04:33;99185.78;;;-1.35;48.81
70217;BME280;65567;55.684;37.570;2023-02-28T05:07:00;99188.19;;;-0.96;48.38
70217;BME280;65567;55.684;37.570;2023-02-28T05:11:57;99165.53;;;-0.34;46.28
70217;BME280;65567;55.684;37.570;2023-02-28T05:14:23;99161.91;;;-0.12;45.72
70217;BME280;65567;55.684;37.570;2023-02-28T05:16:49;99149.66;;;0.14;45.26
70217;BME280;65567;55.684;37.570;2023-02-28T05:19:14;99150.88;;;0.60;44.63
70217;BME280;65567;55.684;37.570;2023-02-28T05:21:47;99137.44;;;1.04;43.67
70217;BME280;65567;55.684;37.570;2023-02-28T05:24:15;99130.75;;;1.49;42.91
70217;BME280;65567;55.684;37.570;2023-02-28T05:26:49;99136.19;;;1.87;41.95
70217;BME280;65567;55.684;37.570;2023-02-28T05:29:16;99115.63;;;2.29;41.13
70217;BME280;65567;55.684;37.570;2023-02-28T05:31:42;99112.06;;;2.79;40.46
70217;BME280;65567;55.684;37.570;2023-02-28T05:34:08;99105.38;;;3.09;39.76
70217;BME280;65567;55.684;37.570;2023-02-28T05:36:37;99092.03;;;3.26;38.74
70217;BME280;65567;55.684;37.570;2023-02-28T05:39:05;99093.94;;;3.56;38.09
70217;BME280;65567;55.684;37.570;2023-02-28T05:41:31;99087.63;;;3.68;37.93
70217;BME280;65567;55.684;37.570;2023-02-28T05:43:57;99084.88;;;4.08;37.40
70217;BME280;65567;55.684;37.570;2023-02-28T05:46:25;99070.03;;;4.45;36.86
70217;BME280;65567;55.684;37.570;2023-02-28T05:48:50;99057.50;;;4.59;36.10
70217;BME280;65567;55.684;37.570;2023-02-28T05:51:17;99062.75;;;4.86;35.69
70217;BME280;65567;55.684;37.570;2023-02-28T05:53:43;99051.50;;;5.16;35.12
70217;BME280;65567;55.684;37.570;2023-02-28T05:56:09;99050.50;;;5.46;34.83
70217;BME280;65567;55.684;37.570;2023-02-28T05:58:35;99045.44;;;5.69;34.92
70217;BME280;65567;55.684;37.570;2023-02-28T06:03:27;99042.28;;;6.11;33.57
70217;BME280;65567;55.684;37.570;2023-02-28T06:05:53;99043.00;;;6.40;33.42
70217;BME280;65567;55.684;37.570;2023-02-28T06:08:20;99026.47;;;6.65;33.34
70217;BME280;65567;55.684;37.570;2023-02-28T06:10:46;99028.03;;;6.69;32.88
70217;BME280;65567;55.684;37.570;2023-02-28T06:15:37;99012.59;;;7.08;32.66
70217;BME280;65567;55.684;37.570;2023-02-28T06:18:04;99007.69;;;7.23;31.67
70217;BME280;65567;55.684;37.570;2023-02-28T06:20:30;98996.28;;;7.25;31.77
70217;BME280;65567;55.684;37.570;2023-02-28T06:22:56;98987.25;;;7.34;31.96
70217;BME280;65567;55.684;37.570;2023-02-28T06:25:25;98987.31;;;7.33;31.49
70217;BME280;65567;55.684;37.570;2023-02-28T06:27:51;98977.50;;;7.60;31.84
70217;BME280;65567;55.684;37.570;2023-02-28T06:30:17;98980.28;;;7.76;31.21
70217;BME280;65567;55.684;37.570;2023-02-28T06:32:43;98965.94;;;7.86;31.62
70217;BME280;65567;55.684;37.570;2023-02-28T06:35:09;98963.13;;;8.10;30.85
70217;BME280;65567;55.684;37.570;2023-02-28T06:37:35;98973.63;;;8.48;30.62
70217;BME280;65567;55.684;37.570;2023-02-28T06:40:01;98954.59;;;8.46;30.28
70217;BME280;65567;55.684;37.570;2023-02-28T06:42:29;98956.41;;;8.44;29.80
70217;BME280;65567;55.684;37.570;2023-02-28T06:44:56;98956.19;;;8.49;30.09
70217;BME280;65567;55.684;37.570;2023-02-28T06:47:22;98946.16;;;8.20;29.53
70217;BME280;65567;55.684;37.570;2023-02-28T06:49:48;98934.59;;;7.67;30.11
70217;BME280;65567;55.684;37.570;2023-02-28T06:52:14;98953.72;;;7.47;30.34
70217;BME280;65567;55.684;37.570;2023-02-28T06:54:40;98934.81;;;7.42;30.88
70217;BME280;65567;55.684;37.570;2023-02-28T06:57:06;98921.66;;;7.24;30.95
70217;BME280;65567;55.684;37.570;2023-02-28T06:59:32;98920.72;;;6.84;31.38
70217;BME280;65567;55.684;37.570;2023-02-28T07:01:58;98901.19;;;6.52;31.88
70217;BME280;65567;55.684;37.570;2023-02-28T07:04:24;98902.00;;;6.30;31.70
70217;BME280;65567;55.684;37.570;2023-02-28T07:06:50;98890.50;;;6.14;32.57
70217;BME280;65567;55.684;37.570;2023-02-28T07:09:16;98890.84;;;6.04;32.87
70217;BME280;65567;55.684;37.570;2023-02-28T07:11:41;98865.19;;;5.71;33.19
70217;BME280;65567;55.684;37.570;2023-02-28T07:14:08;98869.22;;;5.55;33.29
70217;BME280;65567;55.684;37.570;2023-02-28T07:16:36;98872.03;;;5.49;33.42
70217;BME280;65567;55.684;37.570;2023-02-28T07:19:01;98862.03;;;5.38;33.82
70217;BME280;65567;55.684;37.570;2023-02-28T07:21:27;98866.03;;;4.97;34.46
70217;BME280;65567;55.684;37.570;2023-02-28T07:23:53;98836.03;;;4.89;34.79
70217;BME280;65567;55.684;37.570;2023-02-28T07:26:24;98849.78;;;4.66;35.42
70217;BME280;65567;55.684;37.570;2023-02-28T07:28:50;98842.97;;;4.61;35.54
70217;BME280;65567;55.684;37.570;2023-02-28T07:31:16;98842.09;;;4.62;35.74
70217;BME280;65567;55.684;37.570;2023-02-28T07:33:45;98853.28;;;4.65;35.66
70217;BME280;65567;55.684;37.570;2023-02-28T07:36:13;98847.88;;;4.71;35.85
70217;BME280;65567;55.684;37.570;2023-02-28T07:38:45;98853.09;;;4.69;36.12
70217;BME280;65567;55.684;37.570;2023-02-28T07:41:17;98846.06;;;4.73;36.30
70217;BME280;65567;55.684;37.570;2023-02-28T07:43:44;98831.63;;;4.39;36.99
70217;BME280;65567;55.684;37.570;2023-02-28T07:46:12;98824.13;;;4.29;37.15
70217;BME280;65567;55.684;37.570;2023-02-28T07:48:41;98829.50;;;4.23;37.56
70217;BME280;65567;55.684;37.570;2023-02-28T07:51:07;98822.91;;;4.41;37.41
70217;BME280;65567;55.684;37.570;2023-02-28T07:53:33;98816.59;;;4.49;37.50
70217;BME280;65567;55.684;37.570;2023-02-28T07:56:01;98802.50;;;4.30;38.00
70217;BME280;65567;55.684;37.570;2023-02-28T07:58:28;98785.19;;;4.58;37.79
70217;BME280;65567;55.684;37.570;2023-02-28T08:00:54;98786.59;;;4.67;37.59
70217;BME280;65567;55.684;37.570;2023-02-28T08:03:23;98795.03;;;4.99;37.61
70217;BME280;65567;55.684;37.570;2023-02-28T08:05:50;98782.00;;;5.25;37.10
70217;BME280;65567;55.684;37.570;2023-02-28T08:08:18;98767.66;;;5.39;37.01
70217;BME280;65567;55.684;37.570;2023-02-28T08:10:44;98787.06;;;5.52;37.08
70217;BME280;65567;55.684;37.570;2023-02-28T08:13:10;98781.97;;;5.73;36.80
70217;BME280;65567;55.684;37.570;2023-02-28T08:15:36;98788.63;;;5.80;36.45
70217;BME280;65567;55.684;37.570;2023-02-28T08:18:03;98778.88;;;6.09;36.18
70217;BME280;65567;55.684;37.570;2023-02-28T08:20:29;98767.81;;;6.04;35.71
70217;BME280;65567;55.684;37.570;2023-02-28T08:22:55;98772.53;;;5.70;36.03
70217;BME280;65567;55.684;37.570;2023-02-28T08:25:21;98771.56;;;5.73;36.37
70217;BME280;65567;55.684;37.570;2023-02-28T08:27:47;98761.28;;;5.70;36.31
70217;BME280;65567;55.684;37.570;2023-02-28T08:30:16;98749.44;;;5.62;36.39
70217;BME280;65567;55.684;37.570;2023-02-28T08:32:43;98737.53;;;5.57;36.77
70217;BME280;65567;55.684;37.570;2023-02-28T08:35:09;98716.88;;;5.30;37.18
70217;BME280;65567;55.684;37.570;2023-02-28T08:37:35;98716.72;;;5.35;37.25
70217;BME280;65567;55.684;37.570;2023-02-28T08:40:02;98725.75;;;5.24;37.21
70217;BME280;65567;55.684;37.570;2023-02-28T08:42:29;98722.69;;;5.37;37.54
70217;BME280;65567;55.684;37.570;2023-02-28T08:44:55;98728.28;;;5.50;37.44
70217;BME280;65567;55.684;37.570;2023-02-28T08:47:21;98767.19;;;5.27;37.46
70217;BME280;65567;55.684;37.570;2023-02-28T08:49:47;98790.44;;;5.30;37.56
70217;BME280;65567;55.684;37.570;2023-02-28T08:52:13;98794.91;;;5.27;38.06
70217;BME280;65567;55.684;37.570;2023-02-28T08:54:39;98791.63;;;5.22;38.16
70217;BME280;65567;55.684;37.570;2023-02-28T08:57:05;98788.63;;;5.09;38.28
70217;BME280;65567;55.684;37.570;2023-02-28T08:59:31;98786.03;;;4.84;38.47
70217;BME280;65567;55.684;37.570;2023-02-28T09:01:58;98781.00;;;4.79;38.96
70217;BME280;65567;55.684;37.570;2023-02-28T09:04:23;98772.06;;;4.62;39.15
70217;BME280;65567;55.684;37.570;2023-02-28T09:06:50;98776.97;;;4.45;39.46
70217;BME280;65567;55.684;37.570;2023-02-28T09:11:41;98759.13;;;4.36;40.02
70217;BME280;65567;55.684;37.570;2023-02-28T09:14:07;98750.03;;;4.22;40.22
70217;BME280;65567;55.684;37.570;2023-02-28T09:16:34;98738.50;;;4.04;40.82
70217;BME280;65567;55.684;37.570;2023-02-28T09:19:01;98722.63;;;3.88;41.44
70217;BME280;65567;55.684;37.570;2023-02-28T09:21:27;98729.97;;;3.74;41.50
70217;BME280;65567;55.684;37.570;2023-02-28T09:23:53;98711.03;;;3.72;41.92
70217;BME280;65567;55.684;37.570;2023-02-28T09:26:25;98710.84;;;3.78;41.89
70217;BME280;65567;55.684;37.570;2023-02-28T09:28:54;98708.59;;;3.95;41.75
70217;BME280;65567;55.684;37.570;2023-02-28T09:31:23;98714.16;;;3.83;42.01
70217;BME280;65567;55.684;37.570;2023-02-28T09:33:51;98713.66;;;3.99;41.97
70217;BME280;65567;55.684;37.570;2023-02-28T09:36:18;98722.31;;;3.97;41.84
70217;BME280;65567;55.684;37.570;2023-02-28T09:38:44;98725.63;;;4.03;42.06
70217;BME280;65567;55.684;37.570;2023-02-28T09:41:17;98730.97;;;3.96;42.24
70217;BME280;65567;55.684;37.570;2023-02-28T09:43:50;98732.63;;;3.72;42.69
70217;BME280;65567;55.684;37.570;2023-02-28T09:46:38;98728.38;;;3.70;43.08
70217;BME280;65567;55.684;37.570;2023-02-28T09:49:22;98711.25;;;3.66;43.04
70217;BME280;65567;55.684;37.570;2023-02-28T09:51:56;98715.50;;;3.68;43.02
70217;BME280;65567;55.684;37.570;2023-02-28T09:54:28;98699.97;;;3.67;43.24
70217;BME280;65567;55.684;37.570;2023-02-28T09:56:59;98693.50;;;3.53;43.39
70217;BME280;65567;55.684;37.570;2023-02-28T10:04:43;98688.16;;;3.29;44.03
70217;BME280;65567;55.684;37.570;2023-02-28T10:11:03;98664.44;;;3.15;44.53
70217;BME280;65567;55.684;37.570;2023-02-28T10:15:51;98669.75;;;3.39;44.26
70217;BME280;65567;55.684;37.570;2023-02-28T10:18:24;98662.19;;;3.33;44.41
70217;BME280;65567;55.684;37.570;2023-02-28T10:20:55;98646.81;;;3.26;44.67
70217;BME280;65567;55.684;37.570;2023-02-28T10:26:11;98647.50;;;3.33;44.90
70217;BME280;65567;55.684;37.570;2023-02-28T10:28:42;98633.00;;;3.27;44.76
70217;BME280;65567;55.684;37.570;2023-02-28T10:31:15;98622.41;;;3.35;44.97
70217;BME280;65567;55.684;37.570;2023-02-28T10:33:43;98626.63;;;3.38;44.88
70217;BME280;65567;55.684;37.570;2023-02-28T10:36:15;98614.00;;;3.28;45.43
70217;BME280;65567;55.684;37.570;2023-02-28T10:38:44;98615.41;;;3.10;45.50
70217;BME280;65567;55.684;37.570;2023-02-28T10:41:28;98627.50;;;3.10;45.93
70217;BME280;65567;55.684;37.570;2023-02-28T10:44:21;98625.81;;;3.09;45.75
70217;BME280;65567;55.684;37.570;2023-02-28T10:46:48;98619.09;;;3.02;46.06
70217;BME280;65567;55.684;37.570;2023-02-28T10:49:21;98625.44;;;3.21;45.66
70217;BME280;65567;55.684;37.570;2023-02-28T10:51:50;98623.16;;;3.10;45.98
70217;BME280;65567;55.684;37.570;2023-02-28T10:54:43;98624.16;;;3.06;46.36
70217;BME280;65567;55.684;37.570;2023-02-28T10:57:22;98617.94;;;2.84;46.73
70217;BME280;65567;55.684;37.570;2023-02-28T11:00:23;98613.91;;;2.73;47.00
70217;BME280;65567;55.684;37.570;2023-02-28T11:02:51;98598.66;;;2.64;46.99
70217;BME280;65567;55.684;37.570;2023-02-28T11:05:30;98597.09;;;2.58;47.43
70217;BME280;65567;55.684;37.570;2023-02-28T11:08:06;98596.16;;;2.61;47.63
70217;BME280;65567;55.684;37.570;2023-02-28T11:10:32;98595.94;;;2.69;47.66
70217;BME280;65567;55.684;37.570;2023-02-28T11:13:02;98579.34;;;2.46;48.08
70217;BME280;65567;55.684;37.570;2023-02-28T11:15:33;98575.19;;;2.40;48.35
70217;BME280;65567;55.684;37.570;2023-02-28T11:18:01;98595.16;;;2.35;48.74
70217;BME280;65567;55.684;37.570;2023-02-28T11:20:31;98580.31;;;2.42;48.78
70217;BME280;65567;55.684;37.570;2023-02-28T11:23:02;98580.03;;;2.53;48.37
70217;BME280;65567;55.684;37.570;2023-02-28T11:25:38;98581.78;;;2.51;48.59
70217;BME280;65567;55.684;37.570;2023-02-28T11:28:22;98569.97;;;2.42;48.93
70217;BME280;65567;55.684;37.570;2023-02-28T11:31:19;98559.81;;;2.36;49.33
70217;BME280;65567;55.684;37.570;2023-02-28T11:33:54;98562.47;;;2.33;49.42
70217;BME280;65567;55.684;37.570;2023-02-28T11:36:29;98564.56;;;2.51;48.94
70217;BME280;65567;55.684;37.570;2023-02-28T11:39:03;98576.34;;;2.61;48.97
70217;BME280;65567;55.684;37.570;2023-02-28T11:41:46;98565.50;;;2.77;48.49
70217;BME280;65567;55.684;37.570;2023-02-28T11:47:35;98548.13;;;2.54;49.10
70217;BME280;65567;55.684;37.570;2023-02-28T11:50:37;98539.22;;;2.62;49.31
70217;BME280;65567;55.684;37.570;2023-02-28T11:56:06;98554.13;;;2.54;49.80
70217;BME280;65567;55.684;37.570;2023-02-28T11:58:49;98549.22;;;2.45;49.77
70217;BME280;65567;55.684;37.570;2023-02-28T12:01:24;98544.00;;;2.46;49.75
70217;BME280;65567;55.684;37.570;2023-02-28T12:07:03;98537.22;;;2.72;49.58
70217;BME280;65567;55.684;37.570;2023-02-28T12:13:10;98543.94;;;2.78;50.64
70217;BME280;65567;55.684;37.570;2023-02-28T12:21:18;98522.59;;;2.71;50.74
70217;BME280;65567;55.684;37.570;2023-02-28T12:24:03;98533.00;;;2.70;51.08
70217;BME280;65567;55.684;37.570;2023-02-28T12:26:41;98526.22;;;2.66;51.40
70217;BME280;65567;55.684;37.570;2023-02-28T12:31:41;98528.09;;;2.60;51.74
70217;BME280;65567;55.684;37.570;2023-02-28T12:34:14;98520.16;;;2.37;52.36
70217;BME280;65567;55.684;37.570;2023-02-28T12:36:44;98514.84;;;2.41;52.51
70217;BME280;65567;55.684;37.570;2023-02-28T12:39:26;98520.47;;;2.56;52.41
70217;BME280;65567;55.684;37.570;2023-02-28T12:42:01;98513.66;;;2.53;52.49
70217;BME280;65567;55.684;37.570;2023-02-28T12:45:22;98507.47;;;2.57;52.90
70217;BME280;65567;55.684;37.570;2023-02-28T12:47:28;98492.97;;;2.53;52.82
70217;BME280;65567;55.684;37.570;2023-02-28T12:50:07;98491.72;;;2.37;53.59
70217;BME280;65567;55.684;37.570;2023-02-28T12:55:30;98483.63;;;2.19;54.27
70217;BME280;65567;55.684;37.570;2023-02-28T12:58:11;98481.97;;;2.17;54.28
70217;BME280;65567;55.684;37.570;2023-02-28T13:06:11;98473.06;;;2.27;54.26
70217;BME280;65567;55.684;37.570;2023-02-28T13:09:10;98437.59;;;2.32;54.30
70217;BME280;65567;55.684;37.570;2023-02-28T13:11:47;98441.28;;;2.23;54.26
70217;BME280;65567;55.684;37.570;2023-02-28T13:19:44;98445.69;;;2.20;54.38
70217;BME280;65567;55.684;37.570;2023-02-28T13:24:55;98437.78;;;2.26;54.00
70217;BME280;65567;55.684;37.570;2023-02-28T13:27:40;98439.34;;;2.31;53.85
70217;BME280;65567;55.684;37.570;2023-02-28T13:38:47;98442.88;;;2.29;53.90
70217;BME280;65567;55.684;37.570;2023-02-28T13:44:21;98434.97;;;2.34;53.86
70217;BME280;65567;55.684;37.570;2023-02-28T13:49:30;98419.56;;;2.30;54.20
70217;BME280;65567;55.684;37.570;2023-02-28T13:52:22;98418.09;;;2.22;54.46
70217;BME280;65567;55.684;37.570;2023-02-28T13:55:03;98409.31;;;2.27;54.41
70217;BME280;65567;55.684;37.570;2023-02-28T14:00:57;98403.94;;;2.34;54.32
70217;BME280;65567;55.684;37.570;2023-02-28T14:06:26;98412.56;;;2.34;54.40
70217;BME280;65567;55.684;37.570;2023-02-28T14:11:40;98403.16;;;2.31;54.35
70217;BME280;65567;55.684;37.570;2023-02-28T14:14:09;98411.34;;;2.46;53.98
70217;BME280;65567;55.684;37.570;2023-02-28T14:16:45;98408.94;;;2.40;54.38
70217;BME280;65567;55.684;37.570;2023-02-28T14:19:24;98416.50;;;2.46;54.15
70217;BME280;65567;55.684;37.570;2023-02-28T14:25:34;98402.22;;;2.34;54.81
70217;BME280;65567;55.684;37.570;2023-02-28T14:37:37;98391.38;;;2.50;54.81
70217;BME280;65567;55.684;37.570;2023-02-28T14:40:12;98376.44;;;2.59;54.61
70217;BME280;65567;55.684;37.570;2023-02-28T14:42:47;98366.09;;;2.59;54.61
70217;BME280;65567;55.684;37.570;2023-02-28T14:45:20;98378.03;;;2.63;54.77
70217;BME280;65567;55.684;37.570;2023-02-28T14:47:51;98358.47;;;2.55;55.27
70217;BME280;65567;55.684;37.570;2023-02-28T14:50:18;98368.19;;;2.48;55.79
70217;BME280;65567;55.684;37.570;2023-02-28T14:52:45;98360.59;;;2.43;55.69
70217;BME280;65567;55.684;37.570;2023-02-28T14:55:15;98370.16;;;2.40;56.30
70217;BME280;65567;55.684;37.570;2023-02-28T14:58:03;98373.00;;;2.32;57.05
70217;BME280;65567;55.684;37.570;2023-02-28T15:00:36;98354.47;;;2.46;56.41
70217;BME280;65567;55.684;37.570;2023-02-28T15:03:21;98351.31;;;2.36;57.11
70217;BME280;65567;55.684;37.570;2023-02-28T15:05:57;98345.81;;;2.47;56.58
70217;BME280;65567;55.684;37.570;2023-02-28T15:08:29;98361.41;;;2.44;56.90
70217;BME280;65567;55.684;37.570;2023-02-28T15:11:15;98366.78;;;2.38;57.27
70217;BME280;65567;55.684;37.570;2023-02-28T15:13:54;98351.19;;;2.41;57.43
70217;BME280;65567;55.684;37.570;2023-02-28T15:19:22;98350.91;;;2.50;57.26
70217;BME280;65567;55.684;37.570;2023-02-28T15:21:48;98354.19;;;2.55;57.08
70217;BME280;65567;55.684;37.570;2023-02-28T15:24:31;98352.88;;;2.69;56.55
70217;BME280;65567;55.684;37.570;2023-02-28T15:27:10;98348.50;;;2.71;56.53
70217;BME280;65567;55.684;37.570;2023-02-28T15:29:48;98354.25;;;2.52;57.23